EGLF

Farnborough Airport

Farnborough, United Kingdom
METAR EGLF 191520Z 25016KT 220V280 9999 FEW038 SCT041 26/16 Q1017
Observed Flight Rules
Aug-19 @ 15:20 UTC (17 minutes ago) Visual Flight Rules
Wind Visibility Clouds
250° at 16 knots 10,000+ meters
  • Few at 3,800' AGL
  • Scattered at 4,100' AGL
Temperatures Readings
Current 26°C / 79°F
Dewpoint 16°C / 61°F
Humidity 54%
Altimeter 30.03" Hg
Pressure 1017 hPa
Elevation 65
METAR EGLF 191520Z 25016KT 220V280 9999 FEW038 SCT041 26/16 Q1017
Observed Flight Rules
Aug-19 @ 15:20 UTC
(17 minutes ago)
VFR
Wind Visibility
250° at 16 knots 10,000+ meters
Clouds
  • Few at 3,800' AGL
  • Scattered at 4,100' AGL
Temperature Dewpoint
26°C / 79°F 16°C / 61°F
Humidity Altimeter Pressure
54% 30.03" Hg 1017 hPa